Philip, SD (57567)

3:03 AM MST on January 23, 2017 (GMT -0700)
Philip | | Change Station
Active Advisory: Winter Storm Watch

Elev 2205 ft 44.05 °N, 101.60 °W | Updated 8 minutes ago

Overcast
Overcast
22 °F
Feels Like 12 °F
N
9
Wind Variable Wind from East

Today
High -- | Low -- °F
--% Chance of Precip.
Yesterday
High -- | Low -- °F
Precip. -- in
Pressure 29.86 in
Visibility 0.2 miles
Clouds
Windchill 12 °F
Dew Point 20 °F
Humidity 92%
Rainfall 0.00 in
Snow Depth Not available.
7:12 AM 4:45 PM
Waning Crescent, 19% visible
METAR KPHP 230955Z AUTO 10008KT 1/4SM FZFG VV002 M06/M07 A2979 RMK AO2 SLP109 I1001 T10561067
Pressure 29.86 in
Visibility 0.2 miles
Clouds
Windchill 12 °F
Dew Point 20 °F
Humidity 92%
Rainfall 0.00 in
Snow Depth Not available.
7:12 AM 4:45 PM
Waning Crescent, 19% visible
METAR KPHP 230955Z AUTO 10008KT 1/4SM FZFG VV002 M06/M07 A2979 RMK AO2 SLP109 I1001 T10561067

Get Your Daily Forecast Email!

Thanks for signing up!

Be on the lookout for a verification email in your inbox.

You'll start receiving the daily forecast at 8 AM.

×

10-Day Weather Forecast

Almanac

Astronomy

Jan. 23, 2017 Rise Set
Actual Time
Civil Twilight
Nautical Twilight
Astronomical Twilight
Moon
Length of Visible Light
Length of Day
Tomorrow will be .
, % of the Moon is Illuminated

Today's Extremes

State Highs State Lows

Community

WunderPhotos

Upload Photos

1,962,540 photos uploaded!

WunderBlog® & News

Nearby

Air Quality

  Air Quality AQ Index Pollutant
Not available.

Snow Depth

Station Depth Elevation

Earthquake Activity

City Distance Mag. Time & Date
Minimum magnitude displayed is 2.5.

Coastal Water Temperatures

Place Temperature

Stations

Nearby Weather Stations

Station Location Temp. Windchill Dew Point Humidity Wind Precip. Elev Updated Type
                   

Watches & Warnings

Winter Storm Watch
Issued: 2:56 PM CST Jan. 22, 2017 – National Weather Service

... Winter Storm Watch in effect from late Monday evening through
late Tuesday night...

The National Weather Service in Rapid City has issued a Winter
Storm Watch... which is in effect from late Monday evening through
late Tuesday night.

* Snow is expected from late Monday night through late Tuesday
night.

* Total snow accumulations in excess of 6 inches are possible.

* Gusty northerly winds are likely, supporting blowing and
drifting snow and leading to difficult travel.

Precautionary/preparedness actions...

A Winter Storm Watch means there is potential for significant
snow... sleet or ice accumulations that may impact travel.
Continue to monitor the latest forecasts.